Dundee, Michigan
Current Conditions -  °F | °C
As of 6:45 AM on Wednesday 28 Jan 2015 (Local Time) from KTTF Reporting Station
Clear Clear  
Wind Chill: 10°   Ceiling: Unl
Heat Index: 10°   Visibility: 10mi
Dew Point:   Wind: 0mph
Humidity: 92%   Direction: NA
Pressure: 30.32"   Gusts: NA
Location:  41.96°N, 83.66°W
Report Text: KTTF 281145Z AUTO 00000KT 10SM CLR M12/M13 A3032 RMK AO2
Loading
Personal Weather Stations






























Interactive Weather Map New forecast layout! Learn more

10-Day Weather Forecast

Advertisements
Track Severe Weather on mobile